Map

Track Data

SID SEASON NUMBER BASIN SUBBASIN NAME ISO_TIME NATURE LAT LON WMO_WIND WMO_PRES WMO_AGENCY TRACK_TYPE DIST2LAND LANDFALL IFLAG USA_AGENCY USA_ATCF_ID USA_LAT USA_LON USA_RECORD USA_STATUS USA_WIND USA_PRES USA_SSHS USA_R34_NE USA_R34_SE USA_R34_SW USA_R34_NW USA_R50_NE USA_R50_SE USA_R50_SW USA_R50_NW USA_R64_NE USA_R64_SE USA_R64_SW USA_R64_NW USA_POCI USA_ROCI USA_RMW USA_EYE TOKYO_LAT TOKYO_LON TOKYO_GRADE TOKYO_WIND TOKYO_PRES TOKYO_R50_DIR TOKYO_R50_LONG TOKYO_R50_SHORT TOKYO_R30_DIR TOKYO_R30_LONG TOKYO_R30_SHORT TOKYO_LAND CMA_LAT CMA_LON CMA_CAT CMA_WIND CMA_PRES HKO_LAT HKO_LON HKO_CAT HKO_WIND HKO_PRES NEWDELHI_LAT NEWDELHI_LON NEWDELHI_GRADE NEWDELHI_WIND NEWDELHI_PRES NEWDELHI_CI NEWDELHI_DP NEWDELHI_POCI REUNION_LAT REUNION_LON REUNION_TYPE REUNION_WIND REUNION_PRES REUNION_TNUM REUNION_CI REUNION_RMW REUNION_R34_NE REUNION_R34_SE REUNION_R34_SW REUNION_R34_NW REUNION_R50_NE REUNION_R50_SE REUNION_R50_SW REUNION_R50_NW REUNION_R64_NE REUNION_R64_SE REUNION_R64_SW REUNION_R64_NW BOM_LAT BOM_LON BOM_TYPE BOM_WIND BOM_PRES BOM_TNUM BOM_CI BOM_RMW BOM_R34_NE BOM_R34_SE BOM_R34_SW BOM_R34_NW BOM_R50_NE BOM_R50_SE BOM_R50_SW BOM_R50_NW BOM_R64_NE BOM_R64_SE BOM_R64_SW BOM_R64_NW BOM_ROCI BOM_POCI BOM_EYE BOM_POS_METHOD BOM_PRES_METHOD NADI_LAT NADI_LON NADI_CAT NADI_WIND NADI_PRES WELLINGTON_LAT WELLINGTON_LON WELLINGTON_WIND WELLINGTON_PRES DS824_LAT DS824_LON DS824_STAGE DS824_WIND DS824_PRES TD9636_LAT TD9636_LON TD9636_STAGE TD9636_WIND TD9636_PRES TD9635_LAT TD9635_LON TD9635_WIND TD9635_PRES TD9635_ROCI NEUMANN_LAT NEUMANN_LON NEUMANN_CLASS NEUMANN_WIND NEUMANN_PRES MLC_LAT MLC_LON MLC_CLASS MLC_WIND MLC_PRES USA_GUST BOM_GUST BOM_GUST_PER REUNION_GUST REUNION_GUST_PER USA_SEAHGT USA_SEARAD_NE USA_SEARAD_SE USA_SEARAD_SW USA_SEARAD_NW STORM_SPEED STORM_DIR
1967171N30282 1967 40 NA NA NOT_NAMED 1967-06-20 00:00:00 TS 30.0000 -78.0000 25 hurdat_atl main 294 294 O_____________ hurdat_atl AL271967 30.0000 -78.0000 TD 25 -1 4 90
1967171N30282 1967 40 NA NA NOT_NAMED 1967-06-20 03:00:00 TS 30.0001 -77.7475 main 318 318 P_____________ AL271967 30.0001 -77.7475 TD 25 -1 4 90
1967171N30282 1967 40 NA NA NOT_NAMED 1967-06-20 06:00:00 TS 30.0000 -77.5000 25 hurdat_atl main 335 335 O_____________ hurdat_atl AL271967 30.0000 -77.5000 TD 25 -1 4 90
1967171N30282 1967 40 NA NA NOT_NAMED 1967-06-20 09:00:00 TS 29.9999 -77.2575 main 352 352 P_____________ AL271967 29.9999 -77.2575 TD 25 -1 4 90
1967171N30282 1967 40 NA NA NOT_NAMED 1967-06-20 12:00:00 TS 30.0000 -77.0000 25 hurdat_atl main 378 378 O_____________ hurdat_atl AL271967 30.0000 -77.0000 TD 25 -1 5 90
1967171N30282 1967 40 NA NA NOT_NAMED 1967-06-20 15:00:00 TS 29.9999 -76.7150 main 404 404 P_____________ AL271967 29.9999 -76.7150 TD 27 -1 5 90
1967171N30282 1967 40 NA NA NOT_NAMED 1967-06-20 18:00:00 TS 30.0000 -76.4000 30 hurdat_atl main 431 431 O_____________ hurdat_atl AL271967 30.0000 -76.4000 TD 30 -1 6 91
1967171N30282 1967 40 NA NA NOT_NAMED 1967-06-20 21:00:00 TS 29.9924 -76.0649 main 457 457 P_____________ AL271967 29.9924 -76.0649 TD 30 -1 6 90
1967171N30282 1967 40 NA NA NOT_NAMED 1967-06-21 00:00:00 TS 30.0000 -75.7000 30 hurdat_atl main 484 484 O_____________ hurdat_atl AL271967 30.0000 -75.7000 TD 30 -1 7 86
1967171N30282 1967 40 NA NA NOT_NAMED 1967-06-21 03:00:00 TS 30.0349 -75.3075 main 503 499 P_____________ AL271967 30.0349 -75.3075 TD 32 -1 7 82
1967171N30282 1967 40 NA NA NOT_NAMED 1967-06-21 06:00:00 TS 30.1000 -74.9000 35 hurdat_atl main 514 514 O_____________ hurdat_atl AL271967 30.1000 -74.9000 TS 35 0 7 78
1967171N30282 1967 40 NA NA NOT_NAMED 1967-06-21 09:00:00 TS 30.1848 -74.5074 main 527 527 P_____________ AL271967 30.1848 -74.5074 TS 37 0 7 74
1967171N30282 1967 40 NA NA NOT_NAMED 1967-06-21 12:00:00 TS 30.3000 -74.1000 40 1006 hurdat_atl main 539 537 O_____________ hurdat_atl AL271967 30.3000 -74.1000 TS 40 1006 0 8 71
1967171N30282 1967 40 NA NA NOT_NAMED 1967-06-21 15:00:00 TS 30.4425 -73.6500 main 546 541 P_____________ AL271967 30.4425 -73.6500 TS 42 0 8 69
1967171N30282 1967 40 NA NA NOT_NAMED 1967-06-21 18:00:00 TS 30.6000 -73.2000 45 hurdat_atl main 551 551 O_____________ hurdat_atl AL271967 30.6000 -73.2000 TS 45 0 8 68
1967171N30282 1967 40 NA NA NOT_NAMED 1967-06-21 21:00:00 TS 30.7425 -72.7699 main 564 561 P_____________ AL271967 30.7425 -72.7699 TS 45 0 8 66
1967171N30282 1967 40 NA NA NOT_NAMED 1967-06-22 00:00:00 TS 30.9000 -72.4000 45 hurdat_atl main 570 567 O_____________ hurdat_atl AL271967 30.9000 -72.4000 TS 45 0 7 58
1967171N30282 1967 40 NA NA NOT_NAMED 1967-06-22 03:00:00 TS 31.0848 -72.1198 main 573 571 P_____________ AL271967 31.0848 -72.1198 TS 42 0 6 47
1967171N30282 1967 40 NA NA NOT_NAMED 1967-06-22 06:00:00 TS 31.3000 -71.9000 40 hurdat_atl main 571 564 O_____________ hurdat_atl AL271967 31.3000 -71.9000 TS 40 0 6 39
1967171N30282 1967 40 NA NA NOT_NAMED 1967-06-22 09:00:00 TS 31.5350 -71.6849 main 571 563 P_____________ AL271967 31.5350 -71.6849 TS 37 0 6 34
1967171N30282 1967 40 NA NA NOT_NAMED 1967-06-22 12:00:00 TS 31.8000 -71.5000 35 hurdat_atl main 563 550 O_____________ hurdat_atl AL271967 31.8000 -71.5000 TS 35 0 6 28
1967171N30282 1967 40 NA NA NOT_NAMED 1967-06-22 15:00:00 TS 32.0774 -71.3497 main 558 545 P_____________ AL271967 32.0774 -71.3497 TS 32 -1 7 23
1967171N30282 1967 40 NA NA NOT_NAMED 1967-06-22 18:00:00 TS 32.4000 -71.2000 30 1013 hurdat_atl main 546 531 O_____________ hurdat_atl AL271967 32.4000 -71.2000 TD 30 1013 -1 8 22
1967171N30282 1967 40 NA NA NOT_NAMED 1967-06-22 21:00:00 TS 32.7700 -71.0148 main 530 517 P_____________ AL271967 32.7700 -71.0148 TD 27 -1 9 23
1967171N30282 1967 40 NA NA NOT_NAMED 1967-06-23 00:00:00 TS 33.2000 -70.8000 25 hurdat_atl main 518 507 O_____________ hurdat_atl AL271967 33.2000 -70.8000 TD 25 -1 10 22
1967171N30282 1967 40 NA NA NOT_NAMED 1967-06-23 03:00:00 TS 33.6623 -70.5792 main 504 500 P_____________ AL271967 33.6623 -70.5792 TD 25 -1 11 23
1967171N30282 1967 40 NA NA NOT_NAMED 1967-06-23 06:00:00 TS 34.2000 -70.3000 25 hurdat_atl main 505 500 O_____________ hurdat_atl AL271967 34.2000 -70.3000 TD 25 -1 13 25
1967171N30282 1967 40 NA NA NOT_NAMED 1967-06-23 09:00:00 TS 34.8254 -69.9293 main 519 516 P_____________ AL271967 34.8254 -69.9293 TD 25 -1 15 27
1967171N30282 1967 40 NA NA NOT_NAMED 1967-06-23 12:00:00 TS 35.5000 -69.5000 25 hurdat_atl main 541 O_____________ hurdat_atl AL271967 35.5000 -69.5000 TD 25 -1 15 27

About IBTrACS Database

This database is a web-friendly format of International Best Track Archive for Climate Stewardship (IBTrACS), a global best track data archive curated by NOAA dating back to 1842.

Updated: 2022-11-16